Terminal Aerodrome Forecast
Issued by NWS

Home | Current Version | Previous Version | Text Only | Print | Product List | Glossary On
Versions: 1 2 3 4 5 6 7 8 9 10 11 12 13 14 15 16 17 18 19 20 21 22 23 24 25 26 27
000
FTUS43 KDLH 251422 AAA
TAFBRD
TAF AMD
KBRD 251422Z 2514/2612 11008KT P6SM SCT008
      TEMPO 2514/2518 BKN008
     FM251900 12010G18KT P6SM VCSH SCT025 BKN040
     FM252300 12010KT 6SM -SHRA BR SCT025 BKN040
     FM260300 12005KT 5SM -SHRA BR BKN025=

USA.gov is the U.S. government's official web portal to all federal, state and local government web resources and services.